createdAt,value
2023-04-24T00:02:51.841Z,88.17
2023-04-24T00:08:13.830Z,88.26
2023-04-24T00:13:06.263Z,94.58
2023-04-24T00:18:06.259Z,96.87
2023-04-24T00:23:06.205Z,98.10
2023-04-24T00:28:06.040Z,97.89
2023-04-24T00:33:06.153Z,98.10
2023-04-24T00:38:05.928Z,98.14
2023-04-24T00:43:05.853Z,98.35
2023-04-24T00:48:05.831Z,97.16
2023-04-24T00:53:05.788Z,94.36
2023-04-24T00:58:05.681Z,93.95
2023-04-24T01:03:05.874Z,94.51
2023-04-24T01:08:05.540Z,94.67
2023-04-24T01:13:05.470Z,95.69
2023-04-24T01:18:05.400Z,94.56
2023-04-24T01:23:05.321Z,95.59
2023-04-24T01:28:05.264Z,96.92
2023-04-24T01:33:05.185Z,96.86
2023-04-24T01:38:05.153Z,97.57
2023-04-24T01:43:05.064Z,98.19
2023-04-24T01:48:05.034Z,95.73
2023-04-24T01:53:04.924Z,93.38
2023-04-24T01:58:04.892Z,92.97
2023-04-24T02:03:04.980Z,91.74
2023-04-24T02:08:04.734Z,90.92
2023-04-24T02:13:04.653Z,90.52
2023-04-24T02:18:04.620Z,91.23
2023-04-24T02:23:04.539Z,90.21
2023-04-24T02:28:04.461Z,89.80
2023-04-24T02:33:04.387Z,88.71
2023-04-24T02:38:04.346Z,89.03
2023-04-24T02:43:04.285Z,83.74
2023-04-24T02:48:04.250Z,82.71
2023-04-24T02:53:04.152Z,83.27
2023-04-24T02:58:04.066Z,83.31
2023-04-24T03:03:04.230Z,80.74
2023-04-24T03:08:03.952Z,79.96
2023-04-24T03:13:03.870Z,81.95
2023-04-24T03:18:03.927Z,80.72
2023-04-24T03:23:03.741Z,82.19
2023-04-24T03:28:03.709Z,81.88
2023-04-24T03:33:03.653Z,82.43
2023-04-24T03:38:03.554Z,81.10
2023-04-24T03:43:03.479Z,82.06
2023-04-24T03:48:03.463Z,82.89
2023-04-24T03:53:03.333Z,80.93
2023-04-24T03:58:03.254Z,82.17
2023-04-24T04:03:03.377Z,82.10
2023-04-24T04:08:03.125Z,82.51
2023-04-24T04:13:03.074Z,83.17
2023-04-24T04:18:18.439Z,82.76
2023-04-24T04:23:09.946Z,85.12
2023-04-24T04:28:09.883Z,84.30
2023-04-24T04:33:09.941Z,82.71
2023-04-24T04:38:09.757Z,84.77
2023-04-24T04:43:09.709Z,84.40
2023-04-24T04:48:09.601Z,84.09
2023-04-24T04:53:09.650Z,84.30
2023-04-24T04:58:09.476Z,84.09
2023-04-24T05:03:20.096Z,84.81
2023-04-24T05:08:19.781Z,83.64
2023-04-24T05:13:10.317Z,84.98
2023-04-24T05:18:09.258Z,86.72
2023-04-24T05:23:09.176Z,87.61
2023-04-24T05:28:09.088Z,84.36
2023-04-24T05:33:09.120Z,86.11
2023-04-24T05:38:08.946Z,83.85
2023-04-24T05:43:08.892Z,83.81
2023-04-24T05:48:08.877Z,82.84
2023-04-24T05:53:08.840Z,81.95
2023-04-24T05:58:08.813Z,81.02
2023-04-24T06:03:08.832Z,80.82
2023-04-24T06:08:08.602Z,80.27
2023-04-24T06:13:08.565Z,79.75
2023-04-24T06:18:08.443Z,79.38
2023-04-24T06:23:08.390Z,79.13
2023-04-24T06:28:08.335Z,77.90
2023-04-24T06:33:19.357Z,75.65
2023-04-24T06:38:09.168Z,76.13
2023-04-24T06:43:08.126Z,78.97
2023-04-24T06:48:08.179Z,79.93
2023-04-24T06:53:07.995Z,80.03
2023-04-24T06:58:07.888Z,79.93
2023-04-24T07:03:07.993Z,79.11
2023-04-24T07:08:07.793Z,79.75
2023-04-24T07:13:07.716Z,79.82
2023-04-24T07:18:07.702Z,78.90
2023-04-24T07:23:07.625Z,79.93
2023-04-24T07:28:07.574Z,80.33
2023-04-24T07:33:07.717Z,79.41
2023-04-24T07:38:07.412Z,79.68
2023-04-24T07:43:07.426Z,79.79
2023-04-24T07:48:07.404Z,79.48
2023-04-24T07:53:07.288Z,78.97
2023-04-24T07:58:07.125Z,79.27
2023-04-24T08:03:07.196Z,80.09
2023-04-24T08:08:06.998Z,79.48
2023-04-24T08:13:07.095Z,79.24
2023-04-24T08:18:06.917Z,79.44
2023-04-24T08:23:06.862Z,80.19
2023-04-24T08:28:06.742Z,79.99
2023-04-24T08:33:06.850Z,80.71
2023-04-24T08:38:06.647Z,80.98
2023-04-24T08:43:06.560Z,82.45
2023-04-24T08:48:11.369Z,83.72
2023-04-24T08:53:07.442Z,84.64
2023-04-24T08:58:06.339Z,85.15
2023-04-24T09:03:06.318Z,86.28
2023-04-24T09:08:06.178Z,88.53
2023-04-24T09:13:06.148Z,92.27
2023-04-24T09:18:06.116Z,94.73
2023-04-24T09:23:06.007Z,93.70
2023-04-24T09:28:05.953Z,93.96
2023-04-24T09:33:05.909Z,93.26
2023-04-24T09:38:05.858Z,90.09
2023-04-24T09:43:05.964Z,89.98
2023-04-24T09:48:05.801Z,92.30
2023-04-24T09:53:05.710Z,88.88
2023-04-24T09:58:05.658Z,90.82
2023-04-24T10:03:05.588Z,85.97
2023-04-24T10:08:05.459Z,84.88
2023-04-24T10:13:05.315Z,84.22
2023-04-24T10:18:05.324Z,84.61
2023-04-24T10:23:05.224Z,82.49
2023-04-24T10:28:05.181Z,83.02
2023-04-24T10:33:05.203Z,82.75
2023-04-24T10:38:05.028Z,84.55
2023-04-24T10:43:04.926Z,83.37
2023-04-24T10:48:06.303Z,86.18
2023-04-24T10:53:04.860Z,80.22
2023-04-24T10:58:04.838Z,81.04
2023-04-24T11:03:04.782Z,83.10
2023-04-24T11:08:06.826Z,86.65
2023-04-24T11:13:04.516Z,88.84
2023-04-24T11:18:04.536Z,88.17
2023-04-24T11:23:04.440Z,84.42
2023-04-24T11:28:04.350Z,89.90
2023-04-24T11:33:04.389Z,88.98
2023-04-24T11:38:22.597Z,89.76
2023-04-24T11:43:07.765Z,88.00
2023-04-24T11:48:04.150Z,83.73
2023-04-24T11:53:04.033Z,85.14
2023-04-24T11:58:03.965Z,81.99
2023-04-24T12:03:04.089Z,80.97
2023-04-24T12:08:03.866Z,80.19
2023-04-24T12:13:03.892Z,82.10
2023-04-24T12:18:03.726Z,82.18
2023-04-24T12:23:03.655Z,82.46
2023-04-24T12:28:03.566Z,83.46
2023-04-24T12:33:03.542Z,81.51
2023-04-24T12:38:03.435Z,80.01
2023-04-24T12:43:03.343Z,76.66
2023-04-24T12:48:03.337Z,70.28
2023-04-24T12:53:03.237Z,71.50
2023-04-24T12:58:03.184Z,73.36
2023-04-24T13:03:03.381Z,75.85
2023-04-24T13:08:03.066Z,75.47
2023-04-24T13:13:03.055Z,76.08
2023-04-24T13:18:02.937Z,75.64
2023-04-24T13:23:02.826Z,78.64
2023-04-24T13:28:02.944Z,78.50
2023-04-24T13:33:02.718Z,79.69
2023-04-24T13:38:02.752Z,76.50
2023-04-24T13:43:02.526Z,74.32
2023-04-24T13:48:02.557Z,70.00
2023-04-24T13:53:02.950Z,73.19
2023-04-24T13:58:03.800Z,74.11
2023-04-24T14:03:02.391Z,67.52
2023-04-24T14:08:02.288Z,74.24
2023-04-24T14:13:02.888Z,68.55
2023-04-24T14:18:04.257Z,70.68
2023-04-24T14:23:02.074Z,72.82
2023-04-24T14:28:01.967Z,73.19
2023-04-24T14:33:02.014Z,76.02
2023-04-24T14:38:01.912Z,80.30
2023-04-24T14:43:02.757Z,79.28
2023-04-24T14:48:01.693Z,75.85
2023-04-24T14:53:01.637Z,71.02
2023-04-24T14:58:01.570Z,74.99
2023-04-24T15:03:01.727Z,69.29
2023-04-24T15:08:01.433Z,70.14
2023-04-24T15:13:01.439Z,72.82
2023-04-24T15:18:01.361Z,71.77
2023-04-24T15:23:01.230Z,72.11
2023-04-24T15:28:01.142Z,74.21
2023-04-24T15:33:01.149Z,70.85
2023-04-24T15:38:01.070Z,71.94
2023-04-24T15:43:00.966Z,69.97
2023-04-24T15:48:00.904Z,65.19
2023-04-24T15:53:00.804Z,65.57
2023-04-24T15:58:00.810Z,66.72
2023-04-24T16:03:00.879Z,67.57
2023-04-24T16:08:00.648Z,66.35
2023-04-24T16:13:00.598Z,68.75
2023-04-24T16:18:00.617Z,66.71
2023-04-24T16:23:00.446Z,65.95
2023-04-24T16:28:00.396Z,70.75
2023-04-24T16:33:00.567Z,69.83
2023-04-24T16:38:00.210Z,69.96
2023-04-24T16:43:00.276Z,71.80
2023-04-24T16:48:00.146Z,72.92
2023-04-24T16:53:00.222Z,71.53
2023-04-24T16:57:59.977Z,72.99
2023-04-24T17:03:00.099Z,71.46
2023-04-24T17:07:59.819Z,74.32
2023-04-24T17:12:59.803Z,76.81
2023-04-24T17:17:59.738Z,76.09
2023-04-24T17:22:59.728Z,78.54
2023-04-24T17:27:59.606Z,78.27
2023-04-24T17:32:59.577Z,79.70
2023-04-24T17:37:59.456Z,77.39
2023-04-24T17:42:59.390Z,76.37
2023-04-24T17:47:59.349Z,76.26
2023-04-24T17:52:59.271Z,76.09
2023-04-24T17:57:59.163Z,77.01
2023-04-24T18:02:59.241Z,77.63
2023-04-24T18:07:59.134Z,76.61
2023-04-24T18:12:59.015Z,77.22
2023-04-24T18:17:58.942Z,78.04
2023-04-24T18:22:59.318Z,78.65
2023-04-24T18:27:58.785Z,77.67
2023-04-24T18:32:58.861Z,79.61
2023-04-24T18:37:58.642Z,81.24
2023-04-24T18:42:58.600Z,81.76
2023-04-24T18:47:58.566Z,84.11
2023-04-24T18:52:58.461Z,81.65
2023-04-24T18:57:58.374Z,82.17
2023-04-24T19:02:58.451Z,80.63
2023-04-24T19:07:58.296Z,80.53
2023-04-24T19:12:58.183Z,81.79
2023-04-24T19:17:58.140Z,85.28
2023-04-24T19:22:58.024Z,86.40
2023-04-24T19:27:57.993Z,86.51
2023-04-24T19:32:57.941Z,87.47
2023-04-24T19:37:57.846Z,88.49
2023-04-24T19:42:57.771Z,88.80
2023-04-24T19:47:57.769Z,88.18
2023-04-24T19:52:57.651Z,87.77
2023-04-24T19:57:57.558Z,89.92
2023-04-24T20:02:57.732Z,90.17
2023-04-24T20:07:57.448Z,90.17
2023-04-24T20:12:57.403Z,90.79
2023-04-24T20:17:57.366Z,91.30
2023-04-24T20:22:57.291Z,94.21
2023-04-24T20:27:57.192Z,95.14
2023-04-24T20:32:57.154Z,95.07
2023-04-24T20:37:57.046Z,95.28
2023-04-24T20:42:56.993Z,95.18
2023-04-24T20:47:56.970Z,95.39
2023-04-24T20:52:56.858Z,95.59
2023-04-24T20:57:56.799Z,95.07
2023-04-24T21:02:56.801Z,96.45
2023-04-24T21:07:56.649Z,97.13
2023-04-24T21:12:56.675Z,97.03
2023-04-24T21:17:56.544Z,96.56
2023-04-24T21:22:56.468Z,97.48
2023-04-24T21:27:56.366Z,97.89
2023-04-24T21:32:56.339Z,97.58
2023-04-24T21:37:56.246Z,97.79
2023-04-24T21:42:56.190Z,98.10
2023-04-24T21:47:56.161Z,97.69
2023-04-24T21:52:56.030Z,97.48
2023-04-24T21:57:55.968Z,96.70
2023-04-24T22:02:56.067Z,95.98
2023-04-24T22:07:55.848Z,95.17
2023-04-24T22:12:55.823Z,94.96
2023-04-24T22:17:55.754Z,94.45
2023-04-24T22:22:55.692Z,94.45
2023-04-24T22:27:55.576Z,93.83
2023-04-24T22:32:55.557Z,94.04
2023-04-24T22:37:55.477Z,95.37
2023-04-24T22:42:55.406Z,94.49
2023-04-24T22:47:55.328Z,96.65
2023-04-24T22:52:55.259Z,97.27
2023-04-24T22:57:55.161Z,97.52
2023-04-24T23:02:55.277Z,97.20
2023-04-24T23:07:55.065Z,97.10
2023-04-24T23:12:55.067Z,97.15
2023-04-24T23:17:54.968Z,96.84
2023-04-24T23:22:54.871Z,97.25
2023-04-24T23:27:54.754Z,97.61
2023-04-24T23:32:54.769Z,98.02
2023-04-24T23:37:54.683Z,97.86
2023-04-24T23:43:06.344Z,97.24
2023-04-24T23:47:55.528Z,98.16
2023-04-24T23:52:54.483Z,98.21
2023-04-24T23:57:54.409Z,97.69
